sensor_id;sensor_type;location;lat;lon;timestamp;temperature;humidity
10046;DHT22;5063;50.878;4.742;2023-08-24T00:02:06;19.40;99.90
10046;DHT22;5063;50.878;4.742;2023-08-24T00:04:32;19.30;99.90
10046;DHT22;5063;50.878;4.742;2023-08-24T00:06:59;19.30;99.90
10046;DHT22;5063;50.878;4.742;2023-08-24T00:09:26;19.20;99.90
10046;DHT22;5063;50.878;4.742;2023-08-24T00:11:52;19.20;99.90
10046;DHT22;5063;50.878;4.742;2023-08-24T00:14:18;19.10;99.90
10046;DHT22;5063;50.878;4.742;2023-08-24T00:16:44;19.00;99.90
10046;DHT22;5063;50.878;4.742;2023-08-24T00:19:10;18.90;99.90
10046;DHT22;5063;50.878;4.742;2023-08-24T00:21:36;18.90;99.90
10046;DHT22;5063;50.878;4.742;2023-08-24T00:24:02;18.80;99.90
10046;DHT22;5063;50.878;4.742;2023-08-24T00:26:27;18.80;99.90
10046;DHT22;5063;50.878;4.742;2023-08-24T00:28:53;18.80;99.90
10046;DHT22;5063;50.878;4.742;2023-08-24T00:31:19;18.80;99.90
10046;DHT22;5063;50.878;4.742;2023-08-24T00:33:44;18.70;99.90
10046;DHT22;5063;50.878;4.742;2023-08-24T00:36:10;18.60;99.90
10046;DHT22;5063;50.878;4.742;2023-08-24T00:38:36;18.60;99.90
10046;DHT22;5063;50.878;4.742;2023-08-24T00:41:02;18.60;99.90
10046;DHT22;5063;50.878;4.742;2023-08-24T00:43:28;18.70;99.90
10046;DHT22;5063;50.878;4.742;2023-08-24T00:45:56;18.80;99.90
10046;DHT22;5063;50.878;4.742;2023-08-24T00:48:22;19.00;99.90
10046;DHT22;5063;50.878;4.742;2023-08-24T00:50:53;19.10;99.90
10046;DHT22;5063;50.878;4.742;2023-08-24T00:53:19;19.20;99.90
10046;DHT22;5063;50.878;4.742;2023-08-24T00:55:46;19.20;99.90
10046;DHT22;5063;50.878;4.742;2023-08-24T00:58:13;19.30;99.90
10046;DHT22;5063;50.878;4.742;2023-08-24T01:00:39;19.30;99.90
10046;DHT22;5063;50.878;4.742;2023-08-24T01:03:05;19.40;99.90
10046;DHT22;5063;50.878;4.742;2023-08-24T01:05:30;19.40;99.90
10046;DHT22;5063;50.878;4.742;2023-08-24T01:07:56;19.40;99.90
10046;DHT22;5063;50.878;4.742;2023-08-24T01:10:22;19.40;99.90
10046;DHT22;5063;50.878;4.742;2023-08-24T01:15:37;19.40;99.90
10046;DHT22;5063;50.878;4.742;2023-08-24T01:18:07;19.40;99.90
10046;DHT22;5063;50.878;4.742;2023-08-24T01:20:35;19.40;99.90
10046;DHT22;5063;50.878;4.742;2023-08-24T01:25:42;19.40;99.90
10046;DHT22;5063;50.878;4.742;2023-08-24T01:28:13;19.40;99.90
10046;DHT22;5063;50.878;4.742;2023-08-24T01:30:38;19.40;99.90
10046;DHT22;5063;50.878;4.742;2023-08-24T01:33:04;19.50;99.90
10046;DHT22;5063;50.878;4.742;2023-08-24T01:35:31;19.50;99.90
10046;DHT22;5063;50.878;4.742;2023-08-24T01:37:58;19.50;99.90
10046;DHT22;5063;50.878;4.742;2023-08-24T01:43:22;19.40;99.90
10046;DHT22;5063;50.878;4.742;2023-08-24T01:45:49;19.40;99.90
10046;DHT22;5063;50.878;4.742;2023-08-24T01:48:15;19.40;99.90
10046;DHT22;5063;50.878;4.742;2023-08-24T01:50:42;19.40;99.90
10046;DHT22;5063;50.878;4.742;2023-08-24T01:53:08;19.30;99.90
10046;DHT22;5063;50.878;4.742;2023-08-24T01:55:34;19.30;99.90
10046;DHT22;5063;50.878;4.742;2023-08-24T01:58:00;19.40;99.90
10046;DHT22;5063;50.878;4.742;2023-08-24T02:00:25;19.40;99.90
10046;DHT22;5063;50.878;4.742;2023-08-24T02:02:52;19.40;99.90
10046;DHT22;5063;50.878;4.742;2023-08-24T02:05:17;19.30;99.90
10046;DHT22;5063;50.878;4.742;2023-08-24T02:07:43;19.30;99.90
10046;DHT22;5063;50.878;4.742;2023-08-24T02:10:09;19.30;99.90
10046;DHT22;5063;50.878;4.742;2023-08-24T02:12:34;19.20;99.90
10046;DHT22;5063;50.878;4.742;2023-08-24T02:15:00;19.30;99.90
10046;DHT22;5063;50.878;4.742;2023-08-24T02:17:26;19.30;99.90
10046;DHT22;5063;50.878;4.742;2023-08-24T02:19:52;19.40;99.90
10046;DHT22;5063;50.878;4.742;2023-08-24T02:22:18;19.40;99.90
10046;DHT22;5063;50.878;4.742;2023-08-24T02:24:43;19.40;99.90
10046;DHT22;5063;50.878;4.742;2023-08-24T02:27:09;19.40;99.90
10046;DHT22;5063;50.878;4.742;2023-08-24T02:29:35;19.40;99.90
10046;DHT22;5063;50.878;4.742;2023-08-24T02:32:01;19.40;99.90
10046;DHT22;5063;50.878;4.742;2023-08-24T02:34:27;19.30;99.90
10046;DHT22;5063;50.878;4.742;2023-08-24T02:36:52;19.30;99.90
10046;DHT22;5063;50.878;4.742;2023-08-24T02:39:18;19.20;99.90
10046;DHT22;5063;50.878;4.742;2023-08-24T02:41:44;19.10;99.90
10046;DHT22;5063;50.878;4.742;2023-08-24T02:44:10;19.00;99.90
10046;DHT22;5063;50.878;4.742;2023-08-24T02:46:35;18.90;99.90
10046;DHT22;5063;50.878;4.742;2023-08-24T02:49:01;18.90;99.90
10046;DHT22;5063;50.878;4.742;2023-08-24T02:51:27;18.90;99.90
10046;DHT22;5063;50.878;4.742;2023-08-24T02:53:52;18.90;99.90
10046;DHT22;5063;50.878;4.742;2023-08-24T02:56:18;18.90;99.90
10046;DHT22;5063;50.878;4.742;2023-08-24T02:58:44;18.90;99.90
10046;DHT22;5063;50.878;4.742;2023-08-24T03:01:10;19.00;99.90
10046;DHT22;5063;50.878;4.742;2023-08-24T03:03:36;19.00;99.90
10046;DHT22;5063;50.878;4.742;2023-08-24T03:06:05;19.10;99.90
10046;DHT22;5063;50.878;4.742;2023-08-24T03:08:32;19.10;99.90
10046;DHT22;5063;50.878;4.742;2023-08-24T03:10:58;19.20;99.90
10046;DHT22;5063;50.878;4.742;2023-08-24T03:13:24;19.20;99.90
10046;DHT22;5063;50.878;4.742;2023-08-24T03:15:50;19.20;99.90
10046;DHT22;5063;50.878;4.742;2023-08-24T03:18:17;19.10;99.90
10046;DHT22;5063;50.878;4.742;2023-08-24T03:20:44;19.10;99.90
10046;DHT22;5063;50.878;4.742;2023-08-24T03:23:10;19.10;99.90
10046;DHT22;5063;50.878;4.742;2023-08-24T03:25:38;19.00;99.90
10046;DHT22;5063;50.878;4.742;2023-08-24T03:28:04;18.90;99.90
10046;DHT22;5063;50.878;4.742;2023-08-24T03:30:30;18.90;99.90
10046;DHT22;5063;50.878;4.742;2023-08-24T03:32:56;18.80;99.90
10046;DHT22;5063;50.878;4.742;2023-08-24T03:35:22;18.70;99.90
10046;DHT22;5063;50.878;4.742;2023-08-24T03:37:47;18.60;99.90
10046;DHT22;5063;50.878;4.742;2023-08-24T03:40:13;18.50;99.90
10046;DHT22;5063;50.878;4.742;2023-08-24T03:42:39;18.50;99.90
10046;DHT22;5063;50.878;4.742;2023-08-24T03:45:05;18.40;99.90
10046;DHT22;5063;50.878;4.742;2023-08-24T03:47:31;18.30;99.90
10046;DHT22;5063;50.878;4.742;2023-08-24T03:49:57;18.30;99.90
10046;DHT22;5063;50.878;4.742;2023-08-24T03:52:23;18.30;99.90
10046;DHT22;5063;50.878;4.742;2023-08-24T03:54:48;18.30;99.90
10046;DHT22;5063;50.878;4.742;2023-08-24T03:57:14;18.30;99.90
10046;DHT22;5063;50.878;4.742;2023-08-24T03:59:41;18.30;99.90
10046;DHT22;5063;50.878;4.742;2023-08-24T04:02:07;18.30;99.90
10046;DHT22;5063;50.878;4.742;2023-08-24T04:04:32;18.30;99.90
10046;DHT22;5063;50.878;4.742;2023-08-24T04:06:58;18.30;99.90
10046;DHT22;5063;50.878;4.742;2023-08-24T04:09:24;18.30;99.90
10046;DHT22;5063;50.878;4.742;2023-08-24T04:11:50;18.30;99.90
10046;DHT22;5063;50.878;4.742;2023-08-24T04:14:15;18.30;99.90
10046;DHT22;5063;50.878;4.742;2023-08-24T04:16:41;18.30;99.90
10046;DHT22;5063;50.878;4.742;2023-08-24T04:19:08;18.40;99.90
10046;DHT22;5063;50.878;4.742;2023-08-24T04:21:34;18.40;99.90
10046;DHT22;5063;50.878;4.742;2023-08-24T04:23:59;18.40;99.90
10046;DHT22;5063;50.878;4.742;2023-08-24T04:26:25;18.40;99.90
10046;DHT22;5063;50.878;4.742;2023-08-24T04:28:51;18.40;99.90
10046;DHT22;5063;50.878;4.742;2023-08-24T04:31:17;18.40;99.90
10046;DHT22;5063;50.878;4.742;2023-08-24T04:33:42;18.30;99.90
10046;DHT22;5063;50.878;4.742;2023-08-24T04:36:08;18.30;99.90
10046;DHT22;5063;50.878;4.742;2023-08-24T04:38:34;18.20;99.90
10046;DHT22;5063;50.878;4.742;2023-08-24T04:40:59;18.20;99.90
10046;DHT22;5063;50.878;4.742;2023-08-24T04:43:26;18.20;99.90
10046;DHT22;5063;50.878;4.742;2023-08-24T04:45:53;18.10;99.90
10046;DHT22;5063;50.878;4.742;2023-08-24T04:48:23;18.10;99.90
10046;DHT22;5063;50.878;4.742;2023-08-24T04:50:49;18.10;99.90
10046;DHT22;5063;50.878;4.742;2023-08-24T04:53:17;18.00;99.90
10046;DHT22;5063;50.878;4.742;2023-08-24T04:55:43;18.00;99.90
10046;DHT22;5063;50.878;4.742;2023-08-24T04:58:09;18.00;99.90
10046;DHT22;5063;50.878;4.742;2023-08-24T05:00:36;17.90;99.90
10046;DHT22;5063;50.878;4.742;2023-08-24T05:03:06;17.90;99.90
10046;DHT22;5063;50.878;4.742;2023-08-24T05:05:33;17.90;99.90
10046;DHT22;5063;50.878;4.742;2023-08-24T05:08:00;17.90;99.90
10046;DHT22;5063;50.878;4.742;2023-08-24T05:10:29;17.90;99.90
10046;DHT22;5063;50.878;4.742;2023-08-24T05:12:55;18.00;99.90
10046;DHT22;5063;50.878;4.742;2023-08-24T05:15:20;18.10;99.90
10046;DHT22;5063;50.878;4.742;2023-08-24T05:17:46;18.20;99.90
10046;DHT22;5063;50.878;4.742;2023-08-24T05:20:12;18.30;99.90
10046;DHT22;5063;50.878;4.742;2023-08-24T05:22:38;18.50;99.90
10046;DHT22;5063;50.878;4.742;2023-08-24T05:25:04;18.60;99.90
10046;DHT22;5063;50.878;4.742;2023-08-24T05:27:31;18.70;99.90
10046;DHT22;5063;50.878;4.742;2023-08-24T05:29:56;18.80;99.90
10046;DHT22;5063;50.878;4.742;2023-08-24T05:32:22;18.90;99.90
10046;DHT22;5063;50.878;4.742;2023-08-24T05:34:48;19.00;99.90
10046;DHT22;5063;50.878;4.742;2023-08-24T05:37:14;19.10;99.90
10046;DHT22;5063;50.878;4.742;2023-08-24T05:39:40;19.30;99.90
10046;DHT22;5063;50.878;4.742;2023-08-24T05:42:06;19.50;99.90
10046;DHT22;5063;50.878;4.742;2023-08-24T05:44:32;19.70;99.90
10046;DHT22;5063;50.878;4.742;2023-08-24T05:46:57;19.90;99.90
10046;DHT22;5063;50.878;4.742;2023-08-24T05:49:23;20.10;99.90
10046;DHT22;5063;50.878;4.742;2023-08-24T05:51:51;20.30;99.90
10046;DHT22;5063;50.878;4.742;2023-08-24T05:54:17;20.50;99.90
10046;DHT22;5063;50.878;4.742;2023-08-24T05:56:46;20.70;99.90
10046;DHT22;5063;50.878;4.742;2023-08-24T05:59:12;20.90;99.90
10046;DHT22;5063;50.878;4.742;2023-08-24T06:01:38;21.00;99.90
10046;DHT22;5063;50.878;4.742;2023-08-24T06:04:05;21.00;99.90
10046;DHT22;5063;50.878;4.742;2023-08-24T06:06:31;21.10;99.90
10046;DHT22;5063;50.878;4.742;2023-08-24T06:08:56;21.20;99.90
10046;DHT22;5063;50.878;4.742;2023-08-24T06:11:22;21.30;99.90
10046;DHT22;5063;50.878;4.742;2023-08-24T06:13:48;21.40;99.90
10046;DHT22;5063;50.878;4.742;2023-08-24T06:16:14;21.50;99.90
10046;DHT22;5063;50.878;4.742;2023-08-24T06:18:40;21.60;99.90
10046;DHT22;5063;50.878;4.742;2023-08-24T06:21:06;21.90;99.90
10046;DHT22;5063;50.878;4.742;2023-08-24T06:23:33;22.00;99.90
10046;DHT22;5063;50.878;4.742;2023-08-24T06:25:59;22.10;99.90
10046;DHT22;5063;50.878;4.742;2023-08-24T06:28:27;22.50;99.90
10046;DHT22;5063;50.878;4.742;2023-08-24T06:30:55;23.60;99.90
10046;DHT22;5063;50.878;4.742;2023-08-24T06:33:20;25.00;99.90
10046;DHT22;5063;50.878;4.742;2023-08-24T06:35:46;26.50;99.90
10046;DHT22;5063;50.878;4.742;2023-08-24T06:38:13;27.70;99.90
10046;DHT22;5063;50.878;4.742;2023-08-24T06:40:38;29.00;99.90
10046;DHT22;5063;50.878;4.742;2023-08-24T06:43:04;30.00;99.90
10046;DHT22;5063;50.878;4.742;2023-08-24T06:45:31;30.80;99.90
10046;DHT22;5063;50.878;4.742;2023-08-24T06:47:57;31.40;99.90
10046;DHT22;5063;50.878;4.742;2023-08-24T06:50:22;31.80;99.90
10046;DHT22;5063;50.878;4.742;2023-08-24T06:52:48;31.60;99.90
10046;DHT22;5063;50.878;4.742;2023-08-24T06:55:14;31.60;99.90
10046;DHT22;5063;50.878;4.742;2023-08-24T06:57:40;31.60;99.90
10046;DHT22;5063;50.878;4.742;2023-08-24T07:00:06;31.60;99.90
10046;DHT22;5063;50.878;4.742;2023-08-24T07:02:35;31.00;99.90
10046;DHT22;5063;50.878;4.742;2023-08-24T07:05:02;30.50;99.90
10046;DHT22;5063;50.878;4.742;2023-08-24T07:07:30;30.60;99.90
10046;DHT22;5063;50.878;4.742;2023-08-24T07:09:56;30.60;99.90
10046;DHT22;5063;50.878;4.742;2023-08-24T07:12:22;30.00;99.90
10046;DHT22;5063;50.878;4.742;2023-08-24T07:14:47;29.60;99.90
10046;DHT22;5063;50.878;4.742;2023-08-24T07:17:13;29.50;99.90
10046;DHT22;5063;50.878;4.742;2023-08-24T07:19:39;29.50;99.90
10046;DHT22;5063;50.878;4.742;2023-08-24T07:22:04;29.50;99.90
10046;DHT22;5063;50.878;4.742;2023-08-24T07:24:30;29.50;99.90
10046;DHT22;5063;50.878;4.742;2023-08-24T07:26:56;29.80;99.90
10046;DHT22;5063;50.878;4.742;2023-08-24T07:29:22;30.30;99.90
10046;DHT22;5063;50.878;4.742;2023-08-24T07:31:47;30.90;99.90
10046;DHT22;5063;50.878;4.742;2023-08-24T07:34:14;31.20;99.90
10046;DHT22;5063;50.878;4.742;2023-08-24T07:36:41;31.30;99.90
10046;DHT22;5063;50.878;4.742;2023-08-24T07:39:08;31.30;99.90
10046;DHT22;5063;50.878;4.742;2023-08-24T07:41:34;31.00;99.90
10046;DHT22;5063;50.878;4.742;2023-08-24T07:43:59;30.30;99.90
10046;DHT22;5063;50.878;4.742;2023-08-24T07:46:25;29.60;99.90
10046;DHT22;5063;50.878;4.742;2023-08-24T07:48:50;29.10;99.90
10046;DHT22;5063;50.878;4.742;2023-08-24T07:51:16;28.60;99.90
10046;DHT22;5063;50.878;4.742;2023-08-24T07:53:42;28.20;99.90
10046;DHT22;5063;50.878;4.742;2023-08-24T07:56:08;28.00;99.90
10046;DHT22;5063;50.878;4.742;2023-08-24T07:58:34;27.90;99.90
10046;DHT22;5063;50.878;4.742;2023-08-24T08:01:00;27.80;99.90
10046;DHT22;5063;50.878;4.742;2023-08-24T08:03:26;27.60;99.90
10046;DHT22;5063;50.878;4.742;2023-08-24T08:05:51;27.50;99.90
10046;DHT22;5063;50.878;4.742;2023-08-24T08:08:17;27.20;99.90
10046;DHT22;5063;50.878;4.742;2023-08-24T08:10:43;27.30;99.90
10046;DHT22;5063;50.878;4.742;2023-08-24T08:13:09;27.40;99.90
10046;DHT22;5063;50.878;4.742;2023-08-24T08:15:38;27.40;99.90
10046;DHT22;5063;50.878;4.742;2023-08-24T08:18:05;27.40;99.90
10046;DHT22;5063;50.878;4.742;2023-08-24T08:20:31;27.30;99.90
10046;DHT22;5063;50.878;4.742;2023-08-24T08:22:56;27.20;99.90
10046;DHT22;5063;50.878;4.742;2023-08-24T08:25:22;27.10;99.90
10046;DHT22;5063;50.878;4.742;2023-08-24T08:27:49;26.90;99.90
10046;DHT22;5063;50.878;4.742;2023-08-24T08:30:15;26.80;99.90
10046;DHT22;5063;50.878;4.742;2023-08-24T08:32:41;26.70;99.90
10046;DHT22;5063;50.878;4.742;2023-08-24T08:35:08;26.70;99.90
10046;DHT22;5063;50.878;4.742;2023-08-24T08:37:34;26.80;99.90
10046;DHT22;5063;50.878;4.742;2023-08-24T08:40:03;27.10;99.90
10046;DHT22;5063;50.878;4.742;2023-08-24T08:42:32;27.40;99.90
10046;DHT22;5063;50.878;4.742;2023-08-24T08:44:59;27.60;99.90
10046;DHT22;5063;50.878;4.742;2023-08-24T08:47:28;27.70;99.90
10046;DHT22;5063;50.878;4.742;2023-08-24T08:49:55;27.70;99.90
10046;DHT22;5063;50.878;4.742;2023-08-24T08:52:20;27.70;99.90
10046;DHT22;5063;50.878;4.742;2023-08-24T08:54:46;27.70;99.90
10046;DHT22;5063;50.878;4.742;2023-08-24T08:57:13;28.00;99.90
10046;DHT22;5063;50.878;4.742;2023-08-24T08:59:40;28.40;99.90
10046;DHT22;5063;50.878;4.742;2023-08-24T09:02:12;28.40;99.90
10046;DHT22;5063;50.878;4.742;2023-08-24T09:04:41;28.50;99.90
10046;DHT22;5063;50.878;4.742;2023-08-24T09:07:07;28.90;99.90
10046;DHT22;5063;50.878;4.742;2023-08-24T09:09:36;29.20;99.90
10046;DHT22;5063;50.878;4.742;2023-08-24T09:12:05;29.50;99.90
10046;DHT22;5063;50.878;4.742;2023-08-24T09:14:30;29.50;99.90
10046;DHT22;5063;50.878;4.742;2023-08-24T09:16:56;29.30;99.90
10046;DHT22;5063;50.878;4.742;2023-08-24T09:19:28;29.00;99.90
10046;DHT22;5063;50.878;4.742;2023-08-24T09:21:59;28.60;99.90
10046;DHT22;5063;50.878;4.742;2023-08-24T09:24:35;28.20;99.90
10046;DHT22;5063;50.878;4.742;2023-08-24T09:27:21;28.00;99.90
10046;DHT22;5063;50.878;4.742;2023-08-24T09:29:51;27.80;99.90
10046;DHT22;5063;50.878;4.742;2023-08-24T09:32:27;27.70;99.90
10046;DHT22;5063;50.878;4.742;2023-08-24T09:34:53;27.50;99.90
10046;DHT22;5063;50.878;4.742;2023-08-24T09:37:19;27.30;99.90
10046;DHT22;5063;50.878;4.742;2023-08-24T09:39:46;26.90;99.90
10046;DHT22;5063;50.878;4.742;2023-08-24T09:42:13;26.60;99.90
10046;DHT22;5063;50.878;4.742;2023-08-24T09:44:43;26.50;99.90
10046;DHT22;5063;50.878;4.742;2023-08-24T09:47:11;26.10;99.90
10046;DHT22;5063;50.878;4.742;2023-08-24T09:49:36;25.80;99.90
10046;DHT22;5063;50.878;4.742;2023-08-24T09:52:02;25.50;99.90
10046;DHT22;5063;50.878;4.742;2023-08-24T09:54:32;25.30;99.90
10046;DHT22;5063;50.878;4.742;2023-08-24T09:56:59;24.90;99.90
10046;DHT22;5063;50.878;4.742;2023-08-24T09:59:26;24.60;99.90
10046;DHT22;5063;50.878;4.742;2023-08-24T10:01:54;24.10;99.90
10046;DHT22;5063;50.878;4.742;2023-08-24T10:04:24;23.70;99.90
10046;DHT22;5063;50.878;4.742;2023-08-24T10:06:57;23.40;99.90
10046;DHT22;5063;50.878;4.742;2023-08-24T10:09:35;23.30;99.90
10046;DHT22;5063;50.878;4.742;2023-08-24T10:12:04;23.10;99.90
10046;DHT22;5063;50.878;4.742;2023-08-24T10:14:41;22.80;99.90
10046;DHT22;5063;50.878;4.742;2023-08-24T10:17:10;22.50;99.90
10046;DHT22;5063;50.878;4.742;2023-08-24T10:19:36;22.30;99.90
10046;DHT22;5063;50.878;4.742;2023-08-24T10:22:03;22.00;99.90
10046;DHT22;5063;50.878;4.742;2023-08-24T10:24:31;21.90;99.90
10046;DHT22;5063;50.878;4.742;2023-08-24T10:26:58;21.80;99.90
10046;DHT22;5063;50.878;4.742;2023-08-24T10:29:26;21.60;99.90
10046;DHT22;5063;50.878;4.742;2023-08-24T10:31:54;21.50;99.90
10046;DHT22;5063;50.878;4.742;2023-08-24T10:34:20;21.50;99.90
10046;DHT22;5063;50.878;4.742;2023-08-24T10:36:48;21.40;99.90
10046;DHT22;5063;50.878;4.742;2023-08-24T10:39:14;21.40;99.90
10046;DHT22;5063;50.878;4.742;2023-08-24T10:41:53;21.30;99.90
10046;DHT22;5063;50.878;4.742;2023-08-24T10:44:25;21.30;99.90
10046;DHT22;5063;50.878;4.742;2023-08-24T10:47:21;21.30;99.90
10046;DHT22;5063;50.878;4.742;2023-08-24T10:52:31;21.20;99.90
10046;DHT22;5063;50.878;4.742;2023-08-24T10:55:01;21.10;99.90
10046;DHT22;5063;50.878;4.742;2023-08-24T10:57:34;21.20;99.90
10046;DHT22;5063;50.878;4.742;2023-08-24T11:00:10;21.20;99.90
10046;DHT22;5063;50.878;4.742;2023-08-24T11:02:48;21.20;99.90
10046;DHT22;5063;50.878;4.742;2023-08-24T11:07:57;21.60;99.90
10046;DHT22;5063;50.878;4.742;2023-08-24T11:10:24;22.00;99.90
10046;DHT22;5063;50.878;4.742;2023-08-24T11:13:12;22.30;99.90
10046;DHT22;5063;50.878;4.742;2023-08-24T11:15:40;22.60;99.90
10046;DHT22;5063;50.878;4.742;2023-08-24T11:23:19;23.00;99.90
10046;DHT22;5063;50.878;4.742;2023-08-24T11:25:46;23.10;99.90
10046;DHT22;5063;50.878;4.742;2023-08-24T11:28:17;23.30;99.90
10046;DHT22;5063;50.878;4.742;2023-08-24T11:30:43;23.40;99.90
10046;DHT22;5063;50.878;4.742;2023-08-24T11:33:11;23.40;99.90
10046;DHT22;5063;50.878;4.742;2023-08-24T11:35:46;23.60;99.90
10046;DHT22;5063;50.878;4.742;2023-08-24T11:38:12;23.70;99.90
10046;DHT22;5063;50.878;4.742;2023-08-24T11:40:38;24.00;99.90
10046;DHT22;5063;50.878;4.742;2023-08-24T11:43:04;24.30;99.90
10046;DHT22;5063;50.878;4.742;2023-08-24T11:45:35;24.40;99.90
10046;DHT22;5063;50.878;4.742;2023-08-24T11:48:03;24.40;99.90
10046;DHT22;5063;50.878;4.742;2023-08-24T11:50:32;24.30;99.90
10046;DHT22;5063;50.878;4.742;2023-08-24T11:53:00;24.10;99.90
10046;DHT22;5063;50.878;4.742;2023-08-24T11:55:26;23.90;99.90
10046;DHT22;5063;50.878;4.742;2023-08-24T11:57:53;23.80;99.90
10046;DHT22;5063;50.878;4.742;2023-08-24T12:00:21;23.90;99.90
10046;DHT22;5063;50.878;4.742;2023-08-24T12:02:48;24.00;99.90
10046;DHT22;5063;50.878;4.742;2023-08-24T12:05:25;24.20;99.90
10046;DHT22;5063;50.878;4.742;2023-08-24T12:07:52;24.20;99.90
10046;DHT22;5063;50.878;4.742;2023-08-24T12:10:19;24.30;99.90
10046;DHT22;5063;50.878;4.742;2023-08-24T12:12:45;24.30;99.90
10046;DHT22;5063;50.878;4.742;2023-08-24T12:15:20;24.10;99.90
10046;DHT22;5063;50.878;4.742;2023-08-24T12:17:49;24.10;99.90
10046;DHT22;5063;50.878;4.742;2023-08-24T12:20:20;24.10;99.90
10046;DHT22;5063;50.878;4.742;2023-08-24T12:22:56;23.90;99.90
10046;DHT22;5063;50.878;4.742;2023-08-24T12:25:22;23.60;99.90
10046;DHT22;5063;50.878;4.742;2023-08-24T12:27:52;23.60;99.90
10046;DHT22;5063;50.878;4.742;2023-08-24T12:30:20;23.40;99.90
10046;DHT22;5063;50.878;4.742;2023-08-24T12:32:47;23.40;99.90
10046;DHT22;5063;50.878;4.742;2023-08-24T12:35:16;23.10;99.90
10046;DHT22;5063;50.878;4.742;2023-08-24T12:37:42;22.90;99.90
10046;DHT22;5063;50.878;4.742;2023-08-24T12:40:08;22.60;99.90
10046;DHT22;5063;50.878;4.742;2023-08-24T12:42:34;22.40;99.90
10046;DHT22;5063;50.878;4.742;2023-08-24T12:45:00;22.30;99.90
10046;DHT22;5063;50.878;4.742;2023-08-24T12:47:26;22.00;99.90
10046;DHT22;5063;50.878;4.742;2023-08-24T12:49:52;21.90;99.90
10046;DHT22;5063;50.878;4.742;2023-08-24T12:52:20;21.70;99.90
10046;DHT22;5063;50.878;4.742;2023-08-24T12:54:45;21.60;99.90
10046;DHT22;5063;50.878;4.742;2023-08-24T12:57:11;21.60;99.90
10046;DHT22;5063;50.878;4.742;2023-08-24T12:59:38;21.40;99.90
10046;DHT22;5063;50.878;4.742;2023-08-24T13:02:03;21.30;99.90
10046;DHT22;5063;50.878;4.742;2023-08-24T13:04:30;21.20;99.90
10046;DHT22;5063;50.878;4.742;2023-08-24T13:06:58;21.00;99.90
10046;DHT22;5063;50.878;4.742;2023-08-24T13:09:23;20.90;99.90
10046;DHT22;5063;50.878;4.742;2023-08-24T13:11:49;20.80;99.90
10046;DHT22;5063;50.878;4.742;2023-08-24T13:14:15;20.70;99.90
10046;DHT22;5063;50.878;4.742;2023-08-24T13:16:41;20.60;99.90
10046;DHT22;5063;50.878;4.742;2023-08-24T13:19:07;20.60;99.90
10046;DHT22;5063;50.878;4.742;2023-08-24T13:21:33;20.60;99.90
10046;DHT22;5063;50.878;4.742;2023-08-24T13:23:58;20.50;99.90
10046;DHT22;5063;50.878;4.742;2023-08-24T13:26:24;20.50;99.90
10046;DHT22;5063;50.878;4.742;2023-08-24T13:28:51;20.40;99.90
10046;DHT22;5063;50.878;4.742;2023-08-24T13:31:17;20.30;99.90
10046;DHT22;5063;50.878;4.742;2023-08-24T13:33:44;20.30;99.90
10046;DHT22;5063;50.878;4.742;2023-08-24T13:36:10;20.30;99.90
10046;DHT22;5063;50.878;4.742;2023-08-24T13:38:35;20.30;99.90
10046;DHT22;5063;50.878;4.742;2023-08-24T13:41:02;20.30;99.90
10046;DHT22;5063;50.878;4.742;2023-08-24T13:43:29;20.20;99.90
10046;DHT22;5063;50.878;4.742;2023-08-24T13:45:55;20.20;99.90
10046;DHT22;5063;50.878;4.742;2023-08-24T13:48:20;20.20;99.90
10046;DHT22;5063;50.878;4.742;2023-08-24T13:50:50;20.20;99.90
10046;DHT22;5063;50.878;4.742;2023-08-24T13:53:17;20.30;99.90
10046;DHT22;5063;50.878;4.742;2023-08-24T13:55:43;20.30;99.90
10046;DHT22;5063;50.878;4.742;2023-08-24T13:58:09;20.30;99.90
10046;DHT22;5063;50.878;4.742;2023-08-24T14:00:35;20.30;99.90
10046;DHT22;5063;50.878;4.742;2023-08-24T14:03:00;20.40;99.90
10046;DHT22;5063;50.878;4.742;2023-08-24T14:05:26;20.50;99.90
10046;DHT22;5063;50.878;4.742;2023-08-24T14:07:51;20.50;99.90
10046;DHT22;5063;50.878;4.742;2023-08-24T14:10:18;20.70;99.90
10046;DHT22;5063;50.878;4.742;2023-08-24T14:12:43;20.80;99.90
10046;DHT22;5063;50.878;4.742;2023-08-24T14:15:09;20.90;99.90
10046;DHT22;5063;50.878;4.742;2023-08-24T14:17:36;21.00;99.90
10046;DHT22;5063;50.878;4.742;2023-08-24T14:20:02;21.10;99.90
10046;DHT22;5063;50.878;4.742;2023-08-24T14:22:29;21.20;99.90
10046;DHT22;5063;50.878;4.742;2023-08-24T14:24:55;21.30;99.90
10046;DHT22;5063;50.878;4.742;2023-08-24T14:27:21;21.40;99.90
10046;DHT22;5063;50.878;4.742;2023-08-24T14:29:47;21.40;99.90
10046;DHT22;5063;50.878;4.742;2023-08-24T14:32:12;21.40;99.90
10046;DHT22;5063;50.878;4.742;2023-08-24T14:34:38;21.50;99.90
10046;DHT22;5063;50.878;4.742;2023-08-24T14:37:04;21.50;99.90
10046;DHT22;5063;50.878;4.742;2023-08-24T14:39:30;21.60;99.90
10046;DHT22;5063;50.878;4.742;2023-08-24T14:41:55;21.60;99.90
10046;DHT22;5063;50.878;4.742;2023-08-24T14:44:21;21.70;99.90
10046;DHT22;5063;50.878;4.742;2023-08-24T14:46:47;21.80;99.90
10046;DHT22;5063;50.878;4.742;2023-08-24T14:49:12;22.10;99.90
10046;DHT22;5063;50.878;4.742;2023-08-24T14:51:44;22.30;99.90
10046;DHT22;5063;50.878;4.742;2023-08-24T14:54:09;22.30;99.90
10046;DHT22;5063;50.878;4.742;2023-08-24T14:56:38;22.40;99.90
10046;DHT22;5063;50.878;4.742;2023-08-24T14:59:04;22.50;99.90
10046;DHT22;5063;50.878;4.742;2023-08-24T15:01:29;22.60;99.90
10046;DHT22;5063;50.878;4.742;2023-08-24T15:03:55;22.80;99.90
10046;DHT22;5063;50.878;4.742;2023-08-24T15:06:22;22.90;99.90
10046;DHT22;5063;50.878;4.742;2023-08-24T15:08:48;22.90;99.90
10046;DHT22;5063;50.878;4.742;2023-08-24T15:11:15;23.00;99.90
10046;DHT22;5063;50.878;4.742;2023-08-24T15:13:41;23.10;99.90
10046;DHT22;5063;50.878;4.742;2023-08-24T15:16:08;23.00;99.90
10046;DHT22;5063;50.878;4.742;2023-08-24T15:18:35;22.90;99.90
10046;DHT22;5063;50.878;4.742;2023-08-24T15:21:01;23.00;99.90
10046;DHT22;5063;50.878;4.742;2023-08-24T15:23:29;23.00;99.90
10046;DHT22;5063;50.878;4.742;2023-08-24T15:25:56;23.00;99.90
10046;DHT22;5063;50.878;4.742;2023-08-24T15:28:23;23.00;99.90
10046;DHT22;5063;50.878;4.742;2023-08-24T15:30:49;23.10;99.90
10046;DHT22;5063;50.878;4.742;2023-08-24T15:33:16;23.20;99.90
10046;DHT22;5063;50.878;4.742;2023-08-24T15:35:42;23.30;99.90
10046;DHT22;5063;50.878;4.742;2023-08-24T15:38:08;23.50;99.90
10046;DHT22;5063;50.878;4.742;2023-08-24T15:40:35;23.60;99.90
10046;DHT22;5063;50.878;4.742;2023-08-24T15:43:05;23.70;99.90
10046;DHT22;5063;50.878;4.742;2023-08-24T15:45:31;23.80;99.90
10046;DHT22;5063;50.878;4.742;2023-08-24T15:47:58;23.70;99.90
10046;DHT22;5063;50.878;4.742;2023-08-24T15:50:24;23.80;99.90
10046;DHT22;5063;50.878;4.742;2023-08-24T15:52:49;23.80;99.90
10046;DHT22;5063;50.878;4.742;2023-08-24T15:55:15;23.90;99.90
10046;DHT22;5063;50.878;4.742;2023-08-24T15:57:41;24.10;99.90
10046;DHT22;5063;50.878;4.742;2023-08-24T16:00:07;24.40;99.90
10046;DHT22;5063;50.878;4.742;2023-08-24T16:02:40;24.60;99.90